createdAt,value
2019-04-01T00:02:00.175Z,44.90
2019-04-01T00:04:27.872Z,47.70
2019-04-01T00:06:55.633Z,43.80
2019-04-01T00:09:23.268Z,42.43
2019-04-01T00:11:50.873Z,44.90
2019-04-01T00:14:18.490Z,43.93
2019-04-01T00:16:46.178Z,41.83
2019-04-01T00:19:15.588Z,45.07
2019-04-01T00:21:44.657Z,42.00
2019-04-01T00:24:12.766Z,42.13
2019-04-01T00:26:40.453Z,40.73
2019-04-01T00:29:08.207Z,41.83
2019-04-01T00:31:35.913Z,42.70
2019-04-01T00:34:03.700Z,41.17
2019-04-01T00:36:32.653Z,40.37
2019-04-01T00:39:00.257Z,40.13
2019-04-01T00:41:27.970Z,42.60
2019-04-01T00:43:58.276Z,44.17
2019-04-01T00:46:26.266Z,44.27
2019-04-01T00:48:54.086Z,44.67
2019-04-01T00:51:22.150Z,42.30
2019-04-01T00:53:49.781Z,44.73
2019-04-01T00:56:38.528Z,41.90
2019-04-01T00:59:40.239Z,37.93
2019-04-01T01:02:05.318Z,44.30
2019-04-01T01:05:06.339Z,44.93
2019-04-01T01:07:34.138Z,41.40
2019-04-01T01:10:01.804Z,42.63
2019-04-01T01:12:29.481Z,43.43
2019-04-01T01:14:57.042Z,45.23
2019-04-01T01:17:24.916Z,44.00
2019-04-01T01:19:53.105Z,44.30
2019-04-01T01:22:21.231Z,45.57
2019-04-01T01:24:49.089Z,48.23
2019-04-01T01:27:16.765Z,43.43
2019-04-01T01:29:44.320Z,47.60
2019-04-01T01:32:11.940Z,40.83
2019-04-01T01:34:39.563Z,44.53
2019-04-01T01:37:47.487Z,42.17
2019-04-01T01:40:15.168Z,46.27
2019-04-01T01:42:42.927Z,43.37
2019-04-01T01:45:10.706Z,42.53
2019-04-01T01:47:38.467Z,44.40
2019-04-01T01:50:06.736Z,44.43
2019-04-01T01:52:34.422Z,44.20
2019-04-01T01:55:04.516Z,46.00
2019-04-01T01:57:33.916Z,42.37
2019-04-01T02:00:23.543Z,42.93
2019-04-01T02:02:52.269Z,40.27
2019-04-01T02:05:20.031Z,40.77
2019-04-01T02:07:47.542Z,43.43
2019-04-01T02:10:15.364Z,45.80
2019-04-01T02:12:43.298Z,41.87
2019-04-01T02:15:11.009Z,44.83
2019-04-01T02:17:38.908Z,42.87
2019-04-01T02:20:06.602Z,43.43
2019-04-01T02:22:34.289Z,44.70
2019-04-01T02:25:01.994Z,44.40
2019-04-01T02:27:29.585Z,42.70
2019-04-01T02:29:57.248Z,45.00
2019-04-01T02:32:24.850Z,45.37
2019-04-01T02:34:52.412Z,44.03
2019-04-01T02:37:20.071Z,48.53
2019-04-01T02:39:49.038Z,45.23
2019-04-01T02:42:17.213Z,45.73
2019-04-01T02:44:44.970Z,55.73
2019-04-01T02:47:12.707Z,48.77
2019-04-01T02:49:40.426Z,46.03
2019-04-01T02:52:08.128Z,44.67
2019-04-01T02:54:35.764Z,44.73
2019-04-01T02:57:03.791Z,45.27
2019-04-01T02:59:31.453Z,42.90
2019-04-01T03:01:59.153Z,44.83
2019-04-01T03:04:26.737Z,45.97
2019-04-01T03:06:54.333Z,45.97
2019-04-01T03:09:21.889Z,47.67
2019-04-01T03:11:49.714Z,44.50
2019-04-01T03:14:17.387Z,48.87
2019-04-01T03:16:44.922Z,53.90
2019-04-01T03:19:12.480Z,43.60
2019-04-01T03:21:40.290Z,49.23
2019-04-01T03:24:08.234Z,43.07
2019-04-01T03:26:36.973Z,50.63
2019-04-01T03:29:04.586Z,49.27
2019-04-01T03:31:32.179Z,44.10
2019-04-01T03:34:00.242Z,46.07
2019-04-01T03:36:28.004Z,52.00
2019-04-01T03:38:55.857Z,47.30
2019-04-01T03:41:23.357Z,41.83
2019-04-01T03:43:50.889Z,49.07
2019-04-01T03:46:18.478Z,48.30
2019-04-01T03:48:46.037Z,45.50
2019-04-01T03:51:14.117Z,45.93
2019-04-01T03:53:42.032Z,46.67
2019-04-01T03:56:09.646Z,46.33
2019-04-01T03:58:37.198Z,48.63
2019-04-01T04:01:04.994Z,45.33
2019-04-01T04:03:32.535Z,55.83
2019-04-01T04:06:00.071Z,46.40
2019-04-01T04:08:27.575Z,49.23
2019-04-01T04:10:55.204Z,49.70
2019-04-01T04:13:22.744Z,48.43
2019-04-01T04:15:50.457Z,47.27
2019-04-01T04:18:18.186Z,47.00
2019-04-01T04:20:45.910Z,49.10
2019-04-01T04:23:13.981Z,50.33
2019-04-01T04:25:41.701Z,41.30
2019-04-01T04:28:10.239Z,46.90
2019-04-01T04:30:37.837Z,46.93
2019-04-01T04:33:05.797Z,48.50
2019-04-01T04:35:33.607Z,43.27
2019-04-01T04:38:01.794Z,54.10
2019-04-01T04:40:29.388Z,50.00
2019-04-01T04:42:57.020Z,52.73
2019-04-01T04:45:25.194Z,49.87
2019-04-01T04:47:52.759Z,50.90
2019-04-01T04:50:20.529Z,48.70
2019-04-01T04:52:48.549Z,46.43
2019-04-01T04:55:17.369Z,49.20
2019-04-01T04:57:45.069Z,45.10
2019-04-01T05:00:12.938Z,51.63
2019-04-01T05:02:40.724Z,50.77
2019-04-01T05:05:08.310Z,49.33
2019-04-01T05:07:36.117Z,53.07
2019-04-01T05:10:04.675Z,57.40
2019-04-01T05:12:32.205Z,50.63
2019-04-01T05:14:59.756Z,48.80
2019-04-01T05:17:27.639Z,47.73
2019-04-01T05:19:55.301Z,49.43
2019-04-01T05:22:23.872Z,50.93
2019-04-01T05:24:52.231Z,53.00
2019-04-01T05:27:23.758Z,47.93
2019-04-01T05:29:53.243Z,50.50
2019-04-01T05:32:21.321Z,47.43
2019-04-01T05:34:50.273Z,50.00
2019-04-01T05:37:18.361Z,48.57
2019-04-01T05:39:45.969Z,49.57
2019-04-01T05:42:14.180Z,53.57
2019-04-01T05:44:41.887Z,62.83
2019-04-01T05:47:09.665Z,56.03
2019-04-01T05:49:37.419Z,62.00
2019-04-01T05:52:05.081Z,51.77
2019-04-01T05:54:32.991Z,53.73
2019-04-01T05:57:01.066Z,51.80
2019-04-01T05:59:29.002Z,50.40
2019-04-01T06:01:57.417Z,54.37
2019-04-01T06:04:24.975Z,50.07
2019-04-01T06:06:52.693Z,49.40
2019-04-01T06:09:20.234Z,52.00
2019-04-01T06:11:47.816Z,48.30
2019-04-01T06:14:15.317Z,46.40
2019-04-01T06:16:42.971Z,52.43
2019-04-01T06:19:10.695Z,49.93
2019-04-01T06:21:38.310Z,47.80
2019-04-01T06:24:08.558Z,49.50
2019-04-01T06:26:36.109Z,46.60
2019-04-01T06:29:03.866Z,48.90
2019-04-01T06:31:31.515Z,51.90
2019-04-01T06:33:59.136Z,45.97
2019-04-01T06:36:26.859Z,50.00
2019-04-01T06:38:54.568Z,53.77
2019-04-01T06:41:22.292Z,57.20
2019-04-01T06:43:50.306Z,59.47
2019-04-01T06:46:17.945Z,49.47
2019-04-01T06:48:45.742Z,48.63
2019-04-01T06:51:13.375Z,54.67
2019-04-01T06:53:42.478Z,49.83
2019-04-01T06:56:10.003Z,45.43
2019-04-01T06:58:37.976Z,49.27
2019-04-01T07:01:05.592Z,55.10
2019-04-01T07:03:33.513Z,47.73
2019-04-01T07:06:01.173Z,50.30
2019-04-01T07:08:33.802Z,52.13
2019-04-01T07:11:01.434Z,46.73
2019-04-01T07:13:29.397Z,52.90
2019-04-01T07:16:14.339Z,44.07
2019-04-01T07:18:29.324Z,43.10
2019-04-01T07:20:57.015Z,49.23
2019-04-01T07:23:24.986Z,54.60
2019-04-01T07:25:53.891Z,47.97
2019-04-01T07:28:21.658Z,44.90
2019-04-01T07:30:49.265Z,43.43
2019-04-01T07:33:17.148Z,47.10
2019-04-01T07:35:46.802Z,50.20
2019-04-01T07:38:14.686Z,47.27
2019-04-01T07:40:42.775Z,45.30
2019-04-01T07:43:11.016Z,44.80
2019-04-01T07:45:38.897Z,43.20
2019-04-01T07:48:06.626Z,46.87
2019-04-01T07:50:34.562Z,46.40
2019-04-01T07:53:02.381Z,53.77
2019-04-01T07:55:30.174Z,56.30
2019-04-01T07:57:59.927Z,45.23
2019-04-01T08:00:27.718Z,65.37
2019-04-01T08:02:57.629Z,50.50
2019-04-01T08:05:26.258Z,46.63
2019-04-01T08:07:54.414Z,40.17
2019-04-01T08:10:22.074Z,43.60
2019-04-01T08:12:49.704Z,45.97
2019-04-01T08:15:17.273Z,47.93
2019-04-01T08:17:44.855Z,43.33
2019-04-01T08:20:15.528Z,44.63
2019-04-01T08:22:43.630Z,40.97
2019-04-01T08:25:11.818Z,41.90
2019-04-01T08:27:40.074Z,42.80
2019-04-01T08:30:10.714Z,43.70
2019-04-01T08:32:40.597Z,43.93
2019-04-01T08:35:09.532Z,46.13
2019-04-01T08:37:40.259Z,38.43
2019-04-01T08:40:07.203Z,39.40
2019-04-01T08:42:35.629Z,39.27
2019-04-01T08:45:05.048Z,49.83
2019-04-01T08:47:33.316Z,43.90
2019-04-01T08:50:02.425Z,40.47
2019-04-01T08:52:31.914Z,43.60
2019-04-01T08:54:59.608Z,43.50
2019-04-01T08:57:27.234Z,42.47
2019-04-01T08:59:56.506Z,38.37
2019-04-01T09:02:30.416Z,42.07
2019-04-01T09:04:58.590Z,39.43
2019-04-01T09:07:26.601Z,98.63
2019-04-01T09:09:57.954Z,41.13
2019-04-01T09:12:27.427Z,42.90
2019-04-01T09:14:55.945Z,39.77
2019-04-01T09:17:23.429Z,129.97
2019-04-01T09:19:51.790Z,41.37
2019-04-01T09:22:19.491Z,40.03
2019-04-01T09:24:47.739Z,38.27
2019-04-01T09:27:18.473Z,106.23
2019-04-01T09:29:46.050Z,51.17
2019-04-01T09:32:15.529Z,41.10
2019-04-01T09:34:43.068Z,39.60
2019-04-01T09:37:10.578Z,45.00
2019-04-01T09:39:38.609Z,33.97
2019-04-01T09:42:07.216Z,39.10
2019-04-01T09:44:37.054Z,37.40
2019-04-01T09:47:04.004Z,34.20
2019-04-01T09:49:31.535Z,34.17
2019-04-01T09:51:58.969Z,38.63
2019-04-01T09:54:26.496Z,37.00
2019-04-01T09:56:53.997Z,36.73
2019-04-01T09:59:21.468Z,34.33
2019-04-01T10:01:48.984Z,37.80
2019-04-01T10:04:16.531Z,35.47
2019-04-01T10:06:44.000Z,34.50
2019-04-01T10:09:11.606Z,36.77
2019-04-01T10:11:39.084Z,36.10
2019-04-01T10:14:06.677Z,36.40
2019-04-01T10:16:34.225Z,40.40
2019-04-01T10:19:01.723Z,32.40
2019-04-01T10:21:29.204Z,33.30
2019-04-01T10:23:56.748Z,36.63
2019-04-01T10:26:24.315Z,34.50
2019-04-01T10:28:52.224Z,32.43
2019-04-01T10:31:19.725Z,37.77
2019-04-01T10:33:47.196Z,38.37
2019-04-01T10:36:14.701Z,36.70
2019-04-01T10:38:42.156Z,33.83
2019-04-01T10:41:09.654Z,36.33
2019-04-01T10:43:37.143Z,33.47
2019-04-01T10:46:04.625Z,37.93
2019-04-01T10:48:32.144Z,32.43
2019-04-01T10:50:59.703Z,34.00
2019-04-01T10:53:27.227Z,33.73
2019-04-01T10:55:54.668Z,33.90
2019-04-01T10:58:22.628Z,34.20
2019-04-01T11:00:50.157Z,36.13
2019-04-01T11:03:17.712Z,30.00
2019-04-01T11:05:45.333Z,31.43
2019-04-01T11:08:12.829Z,36.03
2019-04-01T11:10:40.319Z,33.77
2019-04-01T11:13:07.826Z,34.27
2019-04-01T11:15:35.402Z,32.00
2019-04-01T11:18:02.880Z,39.83
2019-04-01T11:20:30.365Z,31.70
2019-04-01T11:22:57.887Z,32.17
2019-04-01T11:25:32.963Z,33.03
2019-04-01T11:28:00.841Z,28.90
2019-04-01T11:30:28.357Z,29.87
2019-04-01T11:32:55.919Z,28.90
2019-04-01T11:35:24.429Z,32.40
2019-04-01T11:37:52.252Z,28.07
2019-04-01T11:40:19.813Z,32.07
2019-04-01T11:42:47.351Z,31.20
2019-04-01T11:45:14.947Z,30.50
2019-04-01T11:47:42.461Z,29.30
2019-04-01T11:50:10.541Z,34.73
2019-04-01T11:52:38.471Z,29.57
2019-04-01T11:55:06.921Z,28.33
2019-04-01T11:57:35.969Z,27.53
2019-04-01T12:00:12.271Z,33.97
2019-04-01T12:02:37.351Z,30.63
2019-04-01T12:05:05.212Z,27.77
2019-04-01T12:07:32.702Z,28.83
2019-04-01T12:10:00.511Z,28.00
2019-04-01T12:12:28.057Z,28.60
2019-04-01T12:14:55.876Z,25.37
2019-04-01T12:17:23.564Z,28.90
2019-04-01T12:19:53.160Z,32.50
2019-04-01T12:22:20.701Z,28.87
2019-04-01T12:24:48.292Z,32.30
2019-04-01T12:27:16.351Z,27.23
2019-04-01T12:29:48.011Z,28.93
2019-04-01T12:32:14.381Z,32.43
2019-04-01T12:34:42.261Z,28.63
2019-04-01T12:37:10.060Z,30.00
2019-04-01T12:39:37.579Z,25.57
2019-04-01T12:42:05.804Z,31.33
2019-04-01T12:44:33.409Z,29.50
2019-04-01T12:47:00.945Z,30.13
2019-04-01T12:49:28.943Z,30.67
2019-04-01T12:51:58.306Z,30.17
2019-04-01T12:54:26.114Z,32.40
2019-04-01T12:56:53.897Z,29.93
2019-04-01T12:59:21.609Z,29.20
2019-04-01T13:01:49.676Z,28.10
2019-04-01T13:04:17.780Z,29.10
2019-04-01T13:06:45.371Z,30.33
2019-04-01T13:09:12.979Z,28.70
2019-04-01T13:11:40.525Z,27.30
2019-04-01T13:14:08.047Z,28.67
2019-04-01T13:16:35.641Z,27.83
2019-04-01T13:19:03.261Z,25.27
2019-04-01T13:21:30.748Z,26.13
2019-04-01T13:23:58.333Z,23.27
2019-04-01T13:26:26.081Z,27.87
2019-04-01T13:28:54.934Z,26.23
2019-04-01T13:31:23.885Z,24.23
2019-04-01T13:33:51.642Z,23.97
2019-04-01T13:36:20.960Z,22.87
2019-04-01T13:38:48.769Z,23.03
2019-04-01T13:41:16.565Z,23.47
2019-04-01T13:43:44.146Z,21.13
2019-04-01T13:46:11.755Z,22.23
2019-04-01T13:48:39.410Z,25.87
2019-04-01T13:51:07.132Z,21.40
2019-04-01T13:53:34.832Z,22.70
2019-04-01T13:56:03.108Z,19.70
2019-04-01T13:58:30.927Z,21.17
2019-04-01T14:00:59.468Z,21.13
2019-04-01T14:03:27.125Z,23.13
2019-04-01T14:05:54.724Z,20.63
2019-04-01T14:08:22.473Z,22.70
2019-04-01T14:10:50.951Z,23.97
2019-04-01T14:13:18.669Z,21.07
2019-04-01T14:15:46.216Z,19.67
2019-04-01T14:18:14.153Z,19.43
2019-04-01T14:20:42.112Z,19.93
2019-04-01T14:23:09.681Z,21.60
2019-04-01T14:25:37.217Z,19.43
2019-04-01T14:28:05.229Z,19.40
2019-04-01T14:30:32.752Z,19.43
2019-04-01T14:33:00.256Z,21.17
2019-04-01T14:35:27.790Z,20.23
2019-04-01T14:37:58.168Z,19.17
2019-04-01T14:40:25.062Z,20.80
2019-04-01T14:42:53.175Z,19.17
2019-04-01T14:45:20.764Z,21.47
2019-04-01T14:47:57.003Z,19.57
2019-04-01T14:50:17.619Z,20.00
2019-04-01T14:52:45.069Z,18.27
2019-04-01T14:55:12.836Z,18.00
2019-04-01T14:57:40.330Z,18.67
2019-04-01T15:00:11.870Z,19.93
2019-04-01T15:02:39.982Z,18.83
2019-04-01T15:05:07.474Z,19.47
2019-04-01T15:07:35.049Z,19.67
2019-04-01T15:10:02.909Z,18.83
2019-04-01T15:12:30.400Z,19.67
2019-04-01T15:14:57.884Z,20.47
2019-04-01T15:17:25.409Z,21.90
2019-04-01T15:19:52.937Z,21.37
2019-04-01T15:22:20.445Z,20.13
2019-04-01T15:24:47.998Z,19.57
2019-04-01T15:27:15.650Z,20.57
2019-04-01T15:29:43.257Z,21.00
2019-04-01T15:32:11.089Z,19.53
2019-04-01T15:34:38.613Z,20.40
2019-04-01T15:37:06.378Z,20.07
2019-04-01T15:39:34.216Z,20.70
2019-04-01T15:42:03.566Z,20.80
2019-04-01T15:44:31.279Z,18.93
2019-04-01T15:46:58.840Z,21.30
2019-04-01T15:49:26.490Z,19.87
2019-04-01T15:51:54.537Z,20.20
2019-04-01T15:54:22.176Z,19.40
2019-04-01T15:56:49.728Z,20.23
2019-04-01T15:59:17.257Z,20.83
2019-04-01T16:01:44.809Z,24.00
2019-04-01T16:04:12.414Z,19.70
2019-04-01T16:06:39.983Z,19.90
2019-04-01T16:09:07.566Z,20.80
2019-04-01T16:11:35.078Z,22.43
2019-04-01T16:14:02.825Z,20.77
2019-04-01T16:16:30.316Z,21.77
2019-04-01T16:19:21.760Z,21.73
2019-04-01T16:48:46.525Z,24.97
2019-04-01T16:55:11.839Z,26.20
2019-04-01T16:58:49.686Z,25.17
2019-04-01T17:02:17.776Z,28.77
2019-04-01T17:05:36.639Z,26.83
2019-04-01T17:08:46.245Z,27.13
2019-04-01T17:11:21.393Z,26.73
2019-04-01T17:18:15.431Z,26.70
2019-04-01T17:20:51.009Z,24.77
2019-04-01T17:23:18.513Z,26.50
2019-04-01T17:25:46.644Z,24.37
2019-04-01T17:28:14.701Z,30.07
2019-04-01T17:30:42.380Z,27.37
2019-04-01T17:46:14.093Z,24.07
2019-04-01T17:48:23.442Z,26.60
2019-04-01T17:52:05.328Z,26.57
2019-04-01T17:55:48.490Z,29.33
2019-04-01T17:58:16.664Z,25.03
2019-04-01T18:01:07.210Z,32.63
2019-04-01T18:03:39.658Z,27.10
2019-04-01T18:06:19.634Z,26.80
2019-04-01T18:29:11.761Z,29.07
2019-04-01T18:31:30.964Z,26.97
2019-04-01T18:34:03.545Z,29.90
2019-04-01T18:36:36.588Z,29.10
2019-04-01T18:39:07.427Z,30.60
2019-04-01T18:42:08.401Z,45.10
2019-04-01T18:45:10.396Z,47.87
2019-04-01T18:48:09.736Z,36.70
2019-04-01T18:50:43.061Z,36.20
2019-04-01T18:53:15.363Z,36.80
2019-04-01T18:55:42.721Z,39.83
2019-04-01T18:58:10.514Z,33.67
2019-04-01T19:00:43.719Z,34.70
2019-04-01T19:03:12.650Z,35.77
2019-04-01T19:05:40.467Z,34.10
2019-04-01T19:08:08.852Z,35.57
2019-04-01T19:10:39.159Z,33.13
2019-04-01T19:13:12.255Z,33.67
2019-04-01T19:15:42.002Z,33.77
2019-04-01T19:18:11.205Z,33.60
2019-04-01T19:20:55.683Z,34.60
2019-04-01T19:23:13.970Z,32.67
2019-04-01T19:25:45.549Z,33.77
2019-04-01T19:28:13.566Z,30.77
2019-04-01T19:30:45.049Z,31.90
2019-04-01T19:33:15.069Z,31.10
2019-04-01T19:35:43.047Z,41.10
2019-04-01T19:38:21.546Z,31.80
2019-04-01T19:40:59.947Z,38.07
2019-04-01T19:43:28.274Z,33.77
2019-04-01T19:45:58.835Z,34.00
2019-04-01T19:48:27.047Z,30.97
2019-04-01T19:50:56.305Z,34.00
2019-04-01T19:53:24.803Z,31.97
2019-04-01T19:55:54.433Z,33.50
2019-04-01T19:58:22.427Z,33.10
2019-04-01T20:00:56.178Z,36.43
2019-04-01T20:03:29.592Z,32.20
2019-04-01T20:05:58.130Z,38.83
2019-04-01T20:08:30.364Z,34.70
2019-04-01T20:10:58.294Z,36.00
2019-04-01T20:13:26.553Z,36.20
2019-04-01T20:15:54.574Z,34.83
2019-04-01T20:18:23.535Z,35.60
2019-04-01T20:20:51.566Z,45.03
2019-04-01T20:23:27.451Z,39.73
2019-04-01T20:25:55.330Z,35.63
2019-04-01T20:28:27.163Z,38.23
2019-04-01T20:30:56.577Z,37.37
2019-04-01T20:33:24.397Z,33.00
2019-04-01T20:35:52.561Z,34.57
2019-04-01T20:38:20.737Z,34.40
2019-04-01T20:40:49.722Z,34.63
2019-04-01T20:43:18.146Z,37.20
2019-04-01T20:45:48.514Z,38.20
2019-04-01T20:48:16.469Z,31.77
2019-04-01T20:50:44.404Z,39.03
2019-04-01T20:53:12.487Z,35.10
2019-04-01T20:55:48.172Z,33.90
2019-04-01T20:58:10.861Z,38.93
2019-04-01T21:00:38.861Z,33.17
2019-04-01T21:03:07.428Z,40.17
2019-04-01T21:05:36.127Z,44.40
2019-04-01T21:08:05.026Z,37.63
2019-04-01T21:10:33.157Z,35.93
2019-04-01T21:13:01.753Z,37.90
2019-04-01T21:15:32.122Z,37.07
2019-04-01T21:18:00.154Z,38.30
2019-04-01T21:20:28.271Z,31.67
2019-04-01T21:22:56.255Z,33.10
2019-04-01T21:25:27.341Z,37.50
2019-04-01T21:27:55.633Z,40.40
2019-04-01T21:30:27.670Z,35.73
2019-04-01T21:32:55.724Z,39.70
2019-04-01T21:35:23.927Z,41.17
2019-04-01T21:37:52.384Z,42.70
2019-04-01T21:40:22.313Z,39.73
2019-04-01T21:42:51.525Z,41.27
2019-04-01T21:45:20.032Z,39.70
2019-04-01T21:47:48.264Z,36.23
2019-04-01T21:50:16.312Z,35.80
2019-04-01T21:52:44.240Z,36.20
2019-04-01T21:55:12.714Z,34.50
2019-04-01T21:57:41.272Z,33.73
2019-04-01T22:00:14.215Z,37.90
2019-04-01T22:02:43.918Z,40.67
2019-04-01T22:05:12.483Z,30.07
2019-04-01T22:07:40.730Z,36.27
2019-04-01T22:10:08.737Z,32.37
2019-04-01T22:12:36.843Z,34.07
2019-04-01T22:15:08.263Z,42.87
2019-04-01T22:17:37.662Z,33.00
2019-04-01T22:20:07.739Z,34.00
2019-04-01T22:22:37.442Z,31.30
2019-04-01T22:25:06.279Z,35.97
2019-04-01T22:27:34.331Z,33.50
2019-04-01T22:30:02.384Z,35.70
2019-04-01T22:32:30.348Z,36.33
2019-04-01T22:34:58.318Z,38.40
2019-04-01T22:37:27.680Z,36.77
2019-04-01T22:39:56.134Z,33.23
2019-04-01T22:42:24.272Z,33.37
2019-04-01T22:44:52.702Z,36.80
2019-04-01T22:47:20.687Z,36.70
2019-04-01T22:49:48.697Z,39.87
2019-04-01T22:52:16.972Z,33.90
2019-04-01T22:54:45.107Z,38.90
2019-04-01T22:57:13.185Z,36.70
2019-04-01T22:59:40.967Z,35.77
2019-04-01T23:02:13.278Z,35.27
2019-04-01T23:04:41.168Z,38.53
2019-04-01T23:07:09.584Z,42.40
2019-04-01T23:09:40.386Z,36.53
2019-04-01T23:12:08.657Z,38.40
2019-04-01T23:14:36.813Z,35.80
2019-04-01T23:17:04.829Z,41.43
2019-04-01T23:19:34.345Z,39.53
2019-04-01T23:22:02.485Z,35.17
2019-04-01T23:24:31.619Z,33.50
2019-04-01T23:26:59.460Z,35.20
2019-04-01T23:29:28.310Z,34.87
2019-04-01T23:31:56.951Z,35.40
2019-04-01T23:34:24.712Z,39.40
2019-04-01T23:36:52.521Z,37.27
2019-04-01T23:39:20.381Z,30.83
2019-04-01T23:41:48.454Z,37.13
2019-04-01T23:44:19.035Z,34.80
2019-04-01T23:46:47.146Z,37.77
2019-04-01T23:49:16.008Z,42.73
2019-04-01T23:51:44.492Z,37.20
2019-04-01T23:54:12.471Z,34.33
2019-04-01T23:56:40.169Z,36.97
2019-04-01T23:59:08.408Z,38.60
